sensor_id;sensor_type;location;lat;lon;timestamp;P1;durP1;ratioP1;P2;durP2;ratioP2
5428;SDS011;2737;52.386;9.980;2023-05-07T00:01:37;24.60;;;15.20;;
5428;SDS011;2737;52.386;9.980;2023-05-07T00:04:04;23.13;;;15.83;;
5428;SDS011;2737;52.386;9.980;2023-05-07T00:06:32;24.23;;;15.00;;
5428;SDS011;2737;52.386;9.980;2023-05-07T00:08:59;23.97;;;16.07;;
5428;SDS011;2737;52.386;9.980;2023-05-07T00:11:26;27.30;;;16.47;;
5428;SDS011;2737;52.386;9.980;2023-05-07T00:13:53;27.27;;;15.83;;
5428;SDS011;2737;52.386;9.980;2023-05-07T00:16:22;24.30;;;16.00;;
5428;SDS011;2737;52.386;9.980;2023-05-07T00:18:49;23.40;;;15.23;;
5428;SDS011;2737;52.386;9.980;2023-05-07T00:21:16;24.23;;;15.80;;
5428;SDS011;2737;52.386;9.980;2023-05-07T00:23:43;27.33;;;16.30;;
5428;SDS011;2737;52.386;9.980;2023-05-07T00:26:10;26.50;;;15.87;;
5428;SDS011;2737;52.386;9.980;2023-05-07T00:28:37;29.40;;;17.50;;
5428;SDS011;2737;52.386;9.980;2023-05-07T00:31:04;27.47;;;17.23;;
5428;SDS011;2737;52.386;9.980;2023-05-07T00:33:32;29.93;;;18.50;;
5428;SDS011;2737;52.386;9.980;2023-05-07T00:35:59;27.80;;;17.77;;
5428;SDS011;2737;52.386;9.980;2023-05-07T00:38:27;29.40;;;18.50;;
5428;SDS011;2737;52.386;9.980;2023-05-07T00:40:54;35.40;;;18.53;;
5428;SDS011;2737;52.386;9.980;2023-05-07T00:43:21;31.87;;;19.13;;
5428;SDS011;2737;52.386;9.980;2023-05-07T00:45:48;32.70;;;18.93;;
5428;SDS011;2737;52.386;9.980;2023-05-07T00:48:15;33.53;;;19.57;;
5428;SDS011;2737;52.386;9.980;2023-05-07T00:50:44;34.13;;;20.50;;
5428;SDS011;2737;52.386;9.980;2023-05-07T00:53:12;33.60;;;20.63;;
5428;SDS011;2737;52.386;9.980;2023-05-07T00:55:40;35.23;;;20.50;;
5428;SDS011;2737;52.386;9.980;2023-05-07T00:58:07;30.23;;;19.80;;
5428;SDS011;2737;52.386;9.980;2023-05-07T01:00:34;34.17;;;20.20;;
5428;SDS011;2737;52.386;9.980;2023-05-07T01:03:01;37.83;;;20.47;;
5428;SDS011;2737;52.386;9.980;2023-05-07T01:05:29;30.37;;;18.57;;
5428;SDS011;2737;52.386;9.980;2023-05-07T01:07:58;32.63;;;20.13;;
5428;SDS011;2737;52.386;9.980;2023-05-07T01:10:25;38.00;;;20.00;;
5428;SDS011;2737;52.386;9.980;2023-05-07T01:12:53;37.37;;;20.40;;
5428;SDS011;2737;52.386;9.980;2023-05-07T01:15:20;36.17;;;20.77;;
5428;SDS011;2737;52.386;9.980;2023-05-07T01:17:47;33.47;;;20.27;;
5428;SDS011;2737;52.386;9.980;2023-05-07T01:20:15;35.97;;;20.30;;
5428;SDS011;2737;52.386;9.980;2023-05-07T01:22:43;32.40;;;18.80;;
5428;SDS011;2737;52.386;9.980;2023-05-07T01:25:11;33.87;;;18.53;;
5428;SDS011;2737;52.386;9.980;2023-05-07T01:27:38;31.97;;;19.53;;
5428;SDS011;2737;52.386;9.980;2023-05-07T01:30:06;34.93;;;19.63;;
5428;SDS011;2737;52.386;9.980;2023-05-07T01:32:35;32.17;;;18.80;;
5428;SDS011;2737;52.386;9.980;2023-05-07T01:35:07;35.70;;;18.57;;
5428;SDS011;2737;52.386;9.980;2023-05-07T01:37:37;33.90;;;20.30;;
5428;SDS011;2737;52.386;9.980;2023-05-07T01:40:07;31.10;;;18.23;;
5428;SDS011;2737;52.386;9.980;2023-05-07T01:42:35;28.00;;;18.00;;
5428;SDS011;2737;52.386;9.980;2023-05-07T01:45:02;28.83;;;16.53;;
5428;SDS011;2737;52.386;9.980;2023-05-07T01:47:30;31.47;;;18.43;;
5428;SDS011;2737;52.386;9.980;2023-05-07T01:49:57;32.03;;;19.63;;
5428;SDS011;2737;52.386;9.980;2023-05-07T01:52:25;26.20;;;16.07;;
5428;SDS011;2737;52.386;9.980;2023-05-07T01:54:54;27.13;;;14.30;;
5428;SDS011;2737;52.386;9.980;2023-05-07T01:57:22;22.23;;;13.10;;
5428;SDS011;2737;52.386;9.980;2023-05-07T01:59:49;25.27;;;14.47;;
5428;SDS011;2737;52.386;9.980;2023-05-07T02:02:16;23.53;;;14.97;;
5428;SDS011;2737;52.386;9.980;2023-05-07T02:04:43;25.47;;;14.63;;
5428;SDS011;2737;52.386;9.980;2023-05-07T02:07:10;24.03;;;14.17;;
5428;SDS011;2737;52.386;9.980;2023-05-07T02:09:37;22.57;;;13.60;;
5428;SDS011;2737;52.386;9.980;2023-05-07T02:12:04;22.27;;;13.97;;
5428;SDS011;2737;52.386;9.980;2023-05-07T02:14:33;19.10;;;12.90;;
5428;SDS011;2737;52.386;9.980;2023-05-07T02:17:00;21.07;;;13.37;;
5428;SDS011;2737;52.386;9.980;2023-05-07T02:19:27;20.27;;;12.80;;
5428;SDS011;2737;52.386;9.980;2023-05-07T02:21:54;21.00;;;12.27;;
5428;SDS011;2737;52.386;9.980;2023-05-07T02:24:21;18.97;;;12.43;;
5428;SDS011;2737;52.386;9.980;2023-05-07T02:26:48;18.30;;;11.47;;
5428;SDS011;2737;52.386;9.980;2023-05-07T02:29:15;20.47;;;13.03;;
5428;SDS011;2737;52.386;9.980;2023-05-07T02:31:43;19.57;;;12.93;;
5428;SDS011;2737;52.386;9.980;2023-05-07T02:34:10;21.67;;;12.90;;
5428;SDS011;2737;52.386;9.980;2023-05-07T02:36:37;21.17;;;14.03;;
5428;SDS011;2737;52.386;9.980;2023-05-07T02:39:05;27.93;;;14.10;;
5428;SDS011;2737;52.386;9.980;2023-05-07T02:41:32;22.80;;;13.30;;
5428;SDS011;2737;52.386;9.980;2023-05-07T02:43:59;20.87;;;13.50;;
5428;SDS011;2737;52.386;9.980;2023-05-07T02:46:26;26.07;;;13.70;;
5428;SDS011;2737;52.386;9.980;2023-05-07T02:48:54;21.20;;;13.77;;
5428;SDS011;2737;52.386;9.980;2023-05-07T02:51:22;21.23;;;12.03;;
5428;SDS011;2737;52.386;9.980;2023-05-07T02:53:49;19.50;;;11.77;;
5428;SDS011;2737;52.386;9.980;2023-05-07T02:56:16;18.50;;;12.30;;
5428;SDS011;2737;52.386;9.980;2023-05-07T02:58:43;19.63;;;12.37;;
5428;SDS011;2737;52.386;9.980;2023-05-07T03:01:10;18.63;;;11.77;;
5428;SDS011;2737;52.386;9.980;2023-05-07T03:03:39;19.50;;;12.20;;
5428;SDS011;2737;52.386;9.980;2023-05-07T03:06:07;21.80;;;13.13;;
5428;SDS011;2737;52.386;9.980;2023-05-07T03:08:34;19.90;;;11.80;;
5428;SDS011;2737;52.386;9.980;2023-05-07T03:11:02;19.87;;;12.40;;
5428;SDS011;2737;52.386;9.980;2023-05-07T03:13:29;21.40;;;13.33;;
5428;SDS011;2737;52.386;9.980;2023-05-07T03:15:56;24.20;;;12.30;;
5428;SDS011;2737;52.386;9.980;2023-05-07T03:18:23;21.43;;;12.70;;
5428;SDS011;2737;52.386;9.980;2023-05-07T03:20:51;21.00;;;12.70;;
5428;SDS011;2737;52.386;9.980;2023-05-07T03:23:19;27.43;;;13.00;;
5428;SDS011;2737;52.386;9.980;2023-05-07T03:25:46;20.70;;;11.80;;
5428;SDS011;2737;52.386;9.980;2023-05-07T03:28:14;19.00;;;11.97;;
5428;SDS011;2737;52.386;9.980;2023-05-07T03:30:41;21.87;;;13.37;;
5428;SDS011;2737;52.386;9.980;2023-05-07T03:33:08;21.63;;;12.47;;
5428;SDS011;2737;52.386;9.980;2023-05-07T03:35:35;17.33;;;11.40;;
5428;SDS011;2737;52.386;9.980;2023-05-07T03:38:02;20.60;;;12.00;;
5428;SDS011;2737;52.386;9.980;2023-05-07T03:40:30;17.90;;;11.80;;
5428;SDS011;2737;52.386;9.980;2023-05-07T03:42:57;20.50;;;11.80;;
5428;SDS011;2737;52.386;9.980;2023-05-07T03:45:25;16.47;;;11.07;;
5428;SDS011;2737;52.386;9.980;2023-05-07T03:47:52;16.27;;;11.30;;
5428;SDS011;2737;52.386;9.980;2023-05-07T03:50:19;16.50;;;11.13;;
5428;SDS011;2737;52.386;9.980;2023-05-07T03:52:46;21.97;;;12.23;;
5428;SDS011;2737;52.386;9.980;2023-05-07T03:55:13;17.10;;;11.20;;
5428;SDS011;2737;52.386;9.980;2023-05-07T03:57:42;17.67;;;11.03;;
5428;SDS011;2737;52.386;9.980;2023-05-07T04:00:09;17.93;;;11.63;;
5428;SDS011;2737;52.386;9.980;2023-05-07T04:02:37;18.23;;;11.17;;
5428;SDS011;2737;52.386;9.980;2023-05-07T04:05:04;14.10;;;9.80;;
5428;SDS011;2737;52.386;9.980;2023-05-07T04:07:31;14.80;;;10.70;;
5428;SDS011;2737;52.386;9.980;2023-05-07T04:09:58;17.80;;;10.47;;
5428;SDS011;2737;52.386;9.980;2023-05-07T04:12:25;16.53;;;11.30;;
5428;SDS011;2737;52.386;9.980;2023-05-07T04:14:54;17.93;;;10.90;;
5428;SDS011;2737;52.386;9.980;2023-05-07T04:17:21;15.90;;;10.70;;
5428;SDS011;2737;52.386;9.980;2023-05-07T04:19:48;16.20;;;10.30;;
5428;SDS011;2737;52.386;9.980;2023-05-07T04:22:15;15.97;;;10.30;;
5428;SDS011;2737;52.386;9.980;2023-05-07T04:24:42;16.73;;;10.43;;
5428;SDS011;2737;52.386;9.980;2023-05-07T04:27:09;15.50;;;10.50;;
5428;SDS011;2737;52.386;9.980;2023-05-07T04:29:39;15.80;;;10.63;;
5428;SDS011;2737;52.386;9.980;2023-05-07T04:32:08;17.83;;;11.07;;
5428;SDS011;2737;52.386;9.980;2023-05-07T04:34:36;17.50;;;10.10;;
5428;SDS011;2737;52.386;9.980;2023-05-07T04:37:03;13.73;;;10.27;;
5428;SDS011;2737;52.386;9.980;2023-05-07T04:39:29;14.50;;;9.53;;
5428;SDS011;2737;52.386;9.980;2023-05-07T04:41:56;18.33;;;11.30;;
5428;SDS011;2737;52.386;9.980;2023-05-07T04:44:23;14.50;;;10.07;;
5428;SDS011;2737;52.386;9.980;2023-05-07T04:46:51;15.93;;;10.63;;
5428;SDS011;2737;52.386;9.980;2023-05-07T04:49:19;16.03;;;11.00;;
5428;SDS011;2737;52.386;9.980;2023-05-07T04:51:46;15.97;;;10.57;;
5428;SDS011;2737;52.386;9.980;2023-05-07T04:54:13;14.17;;;8.70;;
5428;SDS011;2737;52.386;9.980;2023-05-07T04:56:40;14.70;;;8.93;;
5428;SDS011;2737;52.386;9.980;2023-05-07T04:59:07;13.73;;;8.53;;
5428;SDS011;2737;52.386;9.980;2023-05-07T05:01:34;13.50;;;8.50;;
5428;SDS011;2737;52.386;9.980;2023-05-07T05:04:01;10.17;;;7.53;;
5428;SDS011;2737;52.386;9.980;2023-05-07T05:06:30;10.30;;;7.60;;
5428;SDS011;2737;52.386;9.980;2023-05-07T05:08:57;12.27;;;8.80;;
5428;SDS011;2737;52.386;9.980;2023-05-07T05:11:24;10.50;;;7.93;;
5428;SDS011;2737;52.386;9.980;2023-05-07T05:13:51;9.53;;;7.53;;
5428;SDS011;2737;52.386;9.980;2023-05-07T05:16:18;11.17;;;8.10;;
5428;SDS011;2737;52.386;9.980;2023-05-07T05:18:45;9.83;;;6.53;;
5428;SDS011;2737;52.386;9.980;2023-05-07T05:21:12;9.87;;;7.23;;
5428;SDS011;2737;52.386;9.980;2023-05-07T05:23:40;9.90;;;7.20;;
5428;SDS011;2737;52.386;9.980;2023-05-07T05:26:07;11.47;;;7.90;;
5428;SDS011;2737;52.386;9.980;2023-05-07T05:28:35;9.57;;;7.43;;
5428;SDS011;2737;52.386;9.980;2023-05-07T05:31:02;8.60;;;6.53;;
5428;SDS011;2737;52.386;9.980;2023-05-07T05:33:29;9.80;;;7.10;;
5428;SDS011;2737;52.386;9.980;2023-05-07T05:35:56;9.83;;;7.20;;
5428;SDS011;2737;52.386;9.980;2023-05-07T05:38:23;8.87;;;7.40;;
5428;SDS011;2737;52.386;9.980;2023-05-07T05:40:52;11.83;;;7.43;;
5428;SDS011;2737;52.386;9.980;2023-05-07T05:43:19;9.00;;;7.40;;
5428;SDS011;2737;52.386;9.980;2023-05-07T05:45:46;12.80;;;7.93;;
5428;SDS011;2737;52.386;9.980;2023-05-07T05:48:13;9.57;;;7.23;;
5428;SDS011;2737;52.386;9.980;2023-05-07T05:50:41;9.40;;;7.33;;
5428;SDS011;2737;52.386;9.980;2023-05-07T05:53:08;9.33;;;7.33;;
5428;SDS011;2737;52.386;9.980;2023-05-07T05:55:35;11.10;;;7.40;;
5428;SDS011;2737;52.386;9.980;2023-05-07T05:58:04;9.50;;;7.67;;
5428;SDS011;2737;52.386;9.980;2023-05-07T06:00:31;8.97;;;6.97;;
5428;SDS011;2737;52.386;9.980;2023-05-07T06:02:58;9.47;;;6.60;;
5428;SDS011;2737;52.386;9.980;2023-05-07T06:05:25;12.03;;;7.70;;
5428;SDS011;2737;52.386;9.980;2023-05-07T06:07:52;8.70;;;7.00;;
5428;SDS011;2737;52.386;9.980;2023-05-07T06:10:19;9.70;;;7.40;;
5428;SDS011;2737;52.386;9.980;2023-05-07T06:12:46;8.67;;;7.20;;
5428;SDS011;2737;52.386;9.980;2023-05-07T06:15:14;9.57;;;7.37;;
5428;SDS011;2737;52.386;9.980;2023-05-07T06:17:42;12.30;;;6.60;;
5428;SDS011;2737;52.386;9.980;2023-05-07T06:20:09;8.53;;;6.97;;
5428;SDS011;2737;52.386;9.980;2023-05-07T06:22:36;10.90;;;6.97;;
5428;SDS011;2737;52.386;9.980;2023-05-07T06:25:03;7.93;;;6.13;;
5428;SDS011;2737;52.386;9.980;2023-05-07T06:27:30;8.33;;;6.77;;
5428;SDS011;2737;52.386;9.980;2023-05-07T06:29:57;9.90;;;7.30;;
5428;SDS011;2737;52.386;9.980;2023-05-07T06:32:26;10.40;;;7.80;;
5428;SDS011;2737;52.386;9.980;2023-05-07T06:34:53;11.90;;;6.63;;
5428;SDS011;2737;52.386;9.980;2023-05-07T06:37:20;11.03;;;7.60;;
5428;SDS011;2737;52.386;9.980;2023-05-07T06:39:47;10.90;;;8.63;;
5428;SDS011;2737;52.386;9.980;2023-05-07T06:42:14;10.50;;;8.37;;
5428;SDS011;2737;52.386;9.980;2023-05-07T06:44:41;10.60;;;8.60;;
5428;SDS011;2737;52.386;9.980;2023-05-07T06:47:08;11.80;;;9.10;;
5428;SDS011;2737;52.386;9.980;2023-05-07T06:49:37;13.27;;;9.53;;
5428;SDS011;2737;52.386;9.980;2023-05-07T06:52:04;14.70;;;9.70;;
5428;SDS011;2737;52.386;9.980;2023-05-07T06:54:31;12.10;;;9.13;;
5428;SDS011;2737;52.386;9.980;2023-05-07T06:56:58;14.83;;;9.97;;
5428;SDS011;2737;52.386;9.980;2023-05-07T06:59:25;15.10;;;11.33;;
5428;SDS011;2737;52.386;9.980;2023-05-07T07:01:52;12.60;;;10.23;;
5428;SDS011;2737;52.386;9.980;2023-05-07T07:04:19;14.20;;;9.00;;
5428;SDS011;2737;52.386;9.980;2023-05-07T07:06:49;12.10;;;9.73;;
5428;SDS011;2737;52.386;9.980;2023-05-07T07:09:19;12.80;;;9.57;;
5428;SDS011;2737;52.386;9.980;2023-05-07T07:11:46;12.10;;;9.83;;
5428;SDS011;2737;52.386;9.980;2023-05-07T07:14:13;10.77;;;9.40;;
5428;SDS011;2737;52.386;9.980;2023-05-07T07:16:40;13.13;;;8.23;;
5428;SDS011;2737;52.386;9.980;2023-05-07T07:19:07;13.03;;;9.10;;
5428;SDS011;2737;52.386;9.980;2023-05-07T07:21:34;10.13;;;8.60;;
5428;SDS011;2737;52.386;9.980;2023-05-07T07:24:02;9.10;;;7.70;;
5428;SDS011;2737;52.386;9.980;2023-05-07T07:26:30;8.23;;;7.10;;
5428;SDS011;2737;52.386;9.980;2023-05-07T07:28:57;10.37;;;7.73;;
5428;SDS011;2737;52.386;9.980;2023-05-07T07:31:24;9.83;;;7.10;;
5428;SDS011;2737;52.386;9.980;2023-05-07T07:33:51;9.30;;;7.30;;
5428;SDS011;2737;52.386;9.980;2023-05-07T07:36:18;7.30;;;6.13;;
5428;SDS011;2737;52.386;9.980;2023-05-07T07:38:45;8.83;;;6.43;;
5428;SDS011;2737;52.386;9.980;2023-05-07T07:41:13;7.43;;;6.13;;
5428;SDS011;2737;52.386;9.980;2023-05-07T07:43:40;8.20;;;6.50;;
5428;SDS011;2737;52.386;9.980;2023-05-07T07:46:07;7.10;;;6.33;;
5428;SDS011;2737;52.386;9.980;2023-05-07T07:48:35;8.57;;;7.03;;
5428;SDS011;2737;52.386;9.980;2023-05-07T07:51:02;9.07;;;6.20;;
5428;SDS011;2737;52.386;9.980;2023-05-07T07:53:29;8.83;;;5.43;;
5428;SDS011;2737;52.386;9.980;2023-05-07T07:55:56;8.10;;;6.30;;
5428;SDS011;2737;52.386;9.980;2023-05-07T07:58:24;7.20;;;6.33;;
5428;SDS011;2737;52.386;9.980;2023-05-07T08:00:51;7.67;;;6.33;;
5428;SDS011;2737;52.386;9.980;2023-05-07T08:03:21;8.40;;;6.80;;
5428;SDS011;2737;52.386;9.980;2023-05-07T08:05:47;9.33;;;6.30;;
5428;SDS011;2737;52.386;9.980;2023-05-07T08:08:16;12.23;;;5.90;;
5428;SDS011;2737;52.386;9.980;2023-05-07T08:10:43;8.00;;;6.10;;
5428;SDS011;2737;52.386;9.980;2023-05-07T08:13:10;9.97;;;6.07;;
5428;SDS011;2737;52.386;9.980;2023-05-07T08:15:38;7.90;;;6.07;;
5428;SDS011;2737;52.386;9.980;2023-05-07T08:18:05;7.07;;;5.77;;
5428;SDS011;2737;52.386;9.980;2023-05-07T08:20:32;9.27;;;5.83;;
5428;SDS011;2737;52.386;9.980;2023-05-07T08:23:04;7.03;;;5.03;;
5428;SDS011;2737;52.386;9.980;2023-05-07T08:25:32;7.93;;;6.27;;
5428;SDS011;2737;52.386;9.980;2023-05-07T08:27:59;6.67;;;5.20;;
5428;SDS011;2737;52.386;9.980;2023-05-07T08:30:26;11.20;;;7.40;;
5428;SDS011;2737;52.386;9.980;2023-05-07T08:32:55;8.87;;;6.80;;
5428;SDS011;2737;52.386;9.980;2023-05-07T08:35:22;9.13;;;6.60;;
5428;SDS011;2737;52.386;9.980;2023-05-07T08:37:50;10.30;;;6.67;;
5428;SDS011;2737;52.386;9.980;2023-05-07T08:40:17;11.60;;;6.73;;
5428;SDS011;2737;52.386;9.980;2023-05-07T08:42:44;13.57;;;7.00;;
5428;SDS011;2737;52.386;9.980;2023-05-07T08:45:15;11.43;;;6.47;;
5428;SDS011;2737;52.386;9.980;2023-05-07T08:47:43;9.17;;;6.03;;
5428;SDS011;2737;52.386;9.980;2023-05-07T08:50:14;7.90;;;6.10;;
5428;SDS011;2737;52.386;9.980;2023-05-07T08:52:41;8.63;;;6.53;;
5428;SDS011;2737;52.386;9.980;2023-05-07T08:55:09;8.40;;;6.50;;
5428;SDS011;2737;52.386;9.980;2023-05-07T08:57:36;8.77;;;6.40;;
5428;SDS011;2737;52.386;9.980;2023-05-07T09:00:04;10.77;;;6.70;;
5428;SDS011;2737;52.386;9.980;2023-05-07T09:02:32;9.40;;;6.80;;
5428;SDS011;2737;52.386;9.980;2023-05-07T09:04:59;7.97;;;6.60;;
5428;SDS011;2737;52.386;9.980;2023-05-07T09:07:27;8.77;;;6.37;;
5428;SDS011;2737;52.386;9.980;2023-05-07T09:09:54;8.40;;;6.30;;
5428;SDS011;2737;52.386;9.980;2023-05-07T09:12:22;8.27;;;6.00;;
5428;SDS011;2737;52.386;9.980;2023-05-07T09:14:49;8.97;;;6.50;;
5428;SDS011;2737;52.386;9.980;2023-05-07T09:17:16;8.90;;;6.30;;
5428;SDS011;2737;52.386;9.980;2023-05-07T09:19:43;7.87;;;6.00;;
5428;SDS011;2737;52.386;9.980;2023-05-07T09:22:11;8.93;;;5.90;;
5428;SDS011;2737;52.386;9.980;2023-05-07T09:24:40;9.90;;;7.20;;
5428;SDS011;2737;52.386;9.980;2023-05-07T09:27:12;10.30;;;7.07;;
5428;SDS011;2737;52.386;9.980;2023-05-07T09:29:40;11.70;;;7.33;;
5428;SDS011;2737;52.386;9.980;2023-05-07T09:32:08;10.50;;;7.23;;
5428;SDS011;2737;52.386;9.980;2023-05-07T09:34:35;8.20;;;7.20;;
5428;SDS011;2737;52.386;9.980;2023-05-07T09:37:02;10.90;;;7.73;;
5428;SDS011;2737;52.386;9.980;2023-05-07T09:39:39;9.67;;;8.10;;
5428;SDS011;2737;52.386;9.980;2023-05-07T09:42:07;9.90;;;7.93;;
5428;SDS011;2737;52.386;9.980;2023-05-07T09:44:35;10.60;;;8.50;;
5428;SDS011;2737;52.386;9.980;2023-05-07T09:47:03;10.27;;;8.50;;
5428;SDS011;2737;52.386;9.980;2023-05-07T09:49:33;12.17;;;7.70;;
5428;SDS011;2737;52.386;9.980;2023-05-07T09:52:01;9.23;;;7.63;;
5428;SDS011;2737;52.386;9.980;2023-05-07T09:54:31;12.43;;;8.30;;
5428;SDS011;2737;52.386;9.980;2023-05-07T09:57:02;11.23;;;8.30;;
5428;SDS011;2737;52.386;9.980;2023-05-07T09:59:30;10.80;;;8.63;;
5428;SDS011;2737;52.386;9.980;2023-05-07T10:01:58;10.23;;;7.77;;
5428;SDS011;2737;52.386;9.980;2023-05-07T10:04:26;8.07;;;7.23;;
5428;SDS011;2737;52.386;9.980;2023-05-07T10:06:54;10.87;;;7.03;;
5428;SDS011;2737;52.386;9.980;2023-05-07T10:09:21;9.13;;;7.40;;
5428;SDS011;2737;52.386;9.980;2023-05-07T10:11:50;9.47;;;7.30;;
5428;SDS011;2737;52.386;9.980;2023-05-07T10:14:20;8.80;;;6.70;;
5428;SDS011;2737;52.386;9.980;2023-05-07T10:16:47;7.57;;;6.30;;
5428;SDS011;2737;52.386;9.980;2023-05-07T10:19:15;8.03;;;6.43;;
5428;SDS011;2737;52.386;9.980;2023-05-07T10:21:44;10.60;;;7.10;;
5428;SDS011;2737;52.386;9.980;2023-05-07T10:24:16;8.50;;;6.73;;
5428;SDS011;2737;52.386;9.980;2023-05-07T10:26:47;7.63;;;6.83;;
5428;SDS011;2737;52.386;9.980;2023-05-07T10:29:29;9.50;;;6.37;;
5428;SDS011;2737;52.386;9.980;2023-05-07T10:32:08;8.37;;;6.97;;
5428;SDS011;2737;52.386;9.980;2023-05-07T10:34:47;7.93;;;6.20;;
5428;SDS011;2737;52.386;9.980;2023-05-07T10:37:16;8.17;;;6.30;;
5428;SDS011;2737;52.386;9.980;2023-05-07T10:39:44;9.57;;;7.00;;
5428;SDS011;2737;52.386;9.980;2023-05-07T10:42:12;6.57;;;5.70;;
5428;SDS011;2737;52.386;9.980;2023-05-07T10:44:41;6.60;;;5.63;;
5428;SDS011;2737;52.386;9.980;2023-05-07T10:47:09;6.80;;;5.63;;
5428;SDS011;2737;52.386;9.980;2023-05-07T10:49:51;7.30;;;5.87;;
5428;SDS011;2737;52.386;9.980;2023-05-07T10:58:52;5.83;;;5.23;;
5428;SDS011;2737;52.386;9.980;2023-05-07T11:04:18;7.00;;;5.30;;
5428;SDS011;2737;52.386;9.980;2023-05-07T11:09:56;6.60;;;5.07;;
5428;SDS011;2737;52.386;9.980;2023-05-07T11:12:47;6.93;;;5.20;;
5428;SDS011;2737;52.386;9.980;2023-05-07T11:18:10;6.93;;;5.60;;
5428;SDS011;2737;52.386;9.980;2023-05-07T11:20:48;5.17;;;4.57;;
5428;SDS011;2737;52.386;9.980;2023-05-07T11:26:27;6.77;;;5.40;;
5428;SDS011;2737;52.386;9.980;2023-05-07T11:28:56;5.50;;;5.00;;
5428;SDS011;2737;52.386;9.980;2023-05-07T11:31:25;8.73;;;5.07;;
5428;SDS011;2737;52.386;9.980;2023-05-07T11:33:56;5.97;;;5.13;;
5428;SDS011;2737;52.386;9.980;2023-05-07T11:36:24;5.70;;;4.63;;
5428;SDS011;2737;52.386;9.980;2023-05-07T11:38:52;6.07;;;4.80;;
5428;SDS011;2737;52.386;9.980;2023-05-07T11:41:19;6.77;;;4.83;;
5428;SDS011;2737;52.386;9.980;2023-05-07T11:43:58;6.67;;;5.00;;
5428;SDS011;2737;52.386;9.980;2023-05-07T11:46:26;10.00;;;5.60;;
5428;SDS011;2737;52.386;9.980;2023-05-07T11:48:56;6.77;;;6.00;;
5428;SDS011;2737;52.386;9.980;2023-05-07T11:51:23;14.50;;;6.20;;
5428;SDS011;2737;52.386;9.980;2023-05-07T11:53:52;5.70;;;4.70;;
5428;SDS011;2737;52.386;9.980;2023-05-07T11:56:19;8.20;;;5.57;;
5428;SDS011;2737;52.386;9.980;2023-05-07T11:58:50;4.97;;;4.47;;
5428;SDS011;2737;52.386;9.980;2023-05-07T12:01:17;11.33;;;4.50;;
5428;SDS011;2737;52.386;9.980;2023-05-07T12:03:44;5.13;;;4.20;;
5428;SDS011;2737;52.386;9.980;2023-05-07T12:06:14;5.93;;;5.13;;
5428;SDS011;2737;52.386;9.980;2023-05-07T12:08:43;4.70;;;4.17;;
5428;SDS011;2737;52.386;9.980;2023-05-07T12:11:13;4.73;;;4.00;;
5428;SDS011;2737;52.386;9.980;2023-05-07T12:13:42;5.20;;;4.10;;
5428;SDS011;2737;52.386;9.980;2023-05-07T12:16:09;5.63;;;4.73;;
5428;SDS011;2737;52.386;9.980;2023-05-07T12:18:37;4.97;;;4.30;;
5428;SDS011;2737;52.386;9.980;2023-05-07T12:21:04;5.10;;;3.70;;
5428;SDS011;2737;52.386;9.980;2023-05-07T12:23:34;5.20;;;3.97;;
5428;SDS011;2737;52.386;9.980;2023-05-07T12:26:03;6.23;;;4.30;;
5428;SDS011;2737;52.386;9.980;2023-05-07T12:28:30;4.27;;;3.87;;
5428;SDS011;2737;52.386;9.980;2023-05-07T12:31:02;4.90;;;4.10;;
5428;SDS011;2737;52.386;9.980;2023-05-07T12:33:29;4.90;;;3.97;;
5428;SDS011;2737;52.386;9.980;2023-05-07T12:35:57;4.30;;;3.60;;
5428;SDS011;2737;52.386;9.980;2023-05-07T12:38:25;4.40;;;3.70;;
5428;SDS011;2737;52.386;9.980;2023-05-07T12:40:54;5.30;;;3.60;;
5428;SDS011;2737;52.386;9.980;2023-05-07T12:43:21;3.40;;;3.10;;
5428;SDS011;2737;52.386;9.980;2023-05-07T12:45:52;4.07;;;3.30;;
5428;SDS011;2737;52.386;9.980;2023-05-07T12:48:21;12.50;;;3.63;;
5428;SDS011;2737;52.386;9.980;2023-05-07T12:50:51;4.40;;;3.43;;
5428;SDS011;2737;52.386;9.980;2023-05-07T12:53:20;3.70;;;3.20;;
5428;SDS011;2737;52.386;9.980;2023-05-07T12:55:49;4.10;;;3.47;;
5428;SDS011;2737;52.386;9.980;2023-05-07T12:58:19;4.30;;;3.50;;
5428;SDS011;2737;52.386;9.980;2023-05-07T13:00:47;4.43;;;4.00;;
5428;SDS011;2737;52.386;9.980;2023-05-07T13:03:22;6.50;;;3.70;;
5428;SDS011;2737;52.386;9.980;2023-05-07T13:05:50;4.80;;;4.20;;
5428;SDS011;2737;52.386;9.980;2023-05-07T13:08:23;5.77;;;4.40;;
5428;SDS011;2737;52.386;9.980;2023-05-07T13:10:51;4.33;;;3.93;;
5428;SDS011;2737;52.386;9.980;2023-05-07T13:13:20;7.43;;;4.97;;
5428;SDS011;2737;52.386;9.980;2023-05-07T13:15:48;5.77;;;5.10;;
5428;SDS011;2737;52.386;9.980;2023-05-07T13:18:15;4.60;;;4.10;;
5428;SDS011;2737;52.386;9.980;2023-05-07T13:20:42;6.37;;;4.57;;
5428;SDS011;2737;52.386;9.980;2023-05-07T13:23:09;4.90;;;4.00;;
5428;SDS011;2737;52.386;9.980;2023-05-07T13:25:36;7.33;;;4.77;;
5428;SDS011;2737;52.386;9.980;2023-05-07T13:28:03;7.00;;;5.23;;
5428;SDS011;2737;52.386;9.980;2023-05-07T13:30:31;6.20;;;4.67;;
5428;SDS011;2737;52.386;9.980;2023-05-07T13:32:58;8.50;;;5.40;;
5428;SDS011;2737;52.386;9.980;2023-05-07T13:35:26;5.87;;;4.47;;
5428;SDS011;2737;52.386;9.980;2023-05-07T13:37:53;5.87;;;4.60;;
5428;SDS011;2737;52.386;9.980;2023-05-07T13:40:20;5.90;;;5.03;;
5428;SDS011;2737;52.386;9.980;2023-05-07T13:42:48;6.73;;;4.70;;
5428;SDS011;2737;52.386;9.980;2023-05-07T13:45:15;9.60;;;4.60;;
5428;SDS011;2737;52.386;9.980;2023-05-07T13:47:44;6.37;;;5.03;;
5428;SDS011;2737;52.386;9.980;2023-05-07T13:50:12;5.80;;;5.20;;
5428;SDS011;2737;52.386;9.980;2023-05-07T13:52:40;6.63;;;4.97;;
5428;SDS011;2737;52.386;9.980;2023-05-07T13:55:10;6.00;;;4.60;;
5428;SDS011;2737;52.386;9.980;2023-05-07T13:57:38;6.50;;;4.80;;
5428;SDS011;2737;52.386;9.980;2023-05-07T14:00:05;7.80;;;5.13;;
5428;SDS011;2737;52.386;9.980;2023-05-07T14:02:33;4.87;;;4.13;;
5428;SDS011;2737;52.386;9.980;2023-05-07T14:05:02;6.00;;;5.00;;
5428;SDS011;2737;52.386;9.980;2023-05-07T14:07:29;5.97;;;4.10;;
5428;SDS011;2737;52.386;9.980;2023-05-07T14:09:56;6.40;;;4.87;;
5428;SDS011;2737;52.386;9.980;2023-05-07T14:12:24;7.13;;;4.67;;
5428;SDS011;2737;52.386;9.980;2023-05-07T14:14:51;6.07;;;4.13;;
5428;SDS011;2737;52.386;9.980;2023-05-07T14:17:18;6.27;;;4.63;;
5428;SDS011;2737;52.386;9.980;2023-05-07T14:19:45;5.93;;;4.30;;
5428;SDS011;2737;52.386;9.980;2023-05-07T14:22:14;6.90;;;5.30;;
5428;SDS011;2737;52.386;9.980;2023-05-07T14:24:41;6.10;;;4.90;;
5428;SDS011;2737;52.386;9.980;2023-05-07T14:27:08;6.03;;;4.40;;
5428;SDS011;2737;52.386;9.980;2023-05-07T14:29:35;6.33;;;4.60;;
5428;SDS011;2737;52.386;9.980;2023-05-07T14:32:02;6.40;;;4.43;;
5428;SDS011;2737;52.386;9.980;2023-05-07T14:34:30;5.60;;;4.47;;
5428;SDS011;2737;52.386;9.980;2023-05-07T14:36:57;5.77;;;4.10;;
5428;SDS011;2737;52.386;9.980;2023-05-07T14:39:27;8.13;;;4.60;;
5428;SDS011;2737;52.386;9.980;2023-05-07T14:41:54;7.00;;;4.37;;
5428;SDS011;2737;52.386;9.980;2023-05-07T14:44:22;6.20;;;4.83;;
5428;SDS011;2737;52.386;9.980;2023-05-07T14:46:49;5.20;;;4.10;;
5428;SDS011;2737;52.386;9.980;2023-05-07T14:49:16;14.80;;;4.50;;
5428;SDS011;2737;52.386;9.980;2023-05-07T14:51:44;5.63;;;4.00;;
5428;SDS011;2737;52.386;9.980;2023-05-07T14:54:11;6.20;;;4.93;;
5428;SDS011;2737;52.386;9.980;2023-05-07T14:56:40;5.33;;;4.00;;
5428;SDS011;2737;52.386;9.980;2023-05-07T14:59:07;5.67;;;4.20;;
5428;SDS011;2737;52.386;9.980;2023-05-07T15:01:35;6.13;;;4.23;;
5428;SDS011;2737;52.386;9.980;2023-05-07T15:04:03;7.30;;;4.20;;
5428;SDS011;2737;52.386;9.980;2023-05-07T15:06:30;6.00;;;3.80;;
5428;SDS011;2737;52.386;9.980;2023-05-07T15:08:57;6.10;;;3.77;;
5428;SDS011;2737;52.386;9.980;2023-05-07T15:11:24;4.83;;;4.30;;
5428;SDS011;2737;52.386;9.980;2023-05-07T15:13:53;4.73;;;3.77;;
5428;SDS011;2737;52.386;9.980;2023-05-07T15:16:20;12.57;;;4.93;;
5428;SDS011;2737;52.386;9.980;2023-05-07T15:18:47;12.10;;;4.60;;
5428;SDS011;2737;52.386;9.980;2023-05-07T15:21:15;6.70;;;4.70;;
5428;SDS011;2737;52.386;9.980;2023-05-07T15:23:42;5.40;;;4.50;;
5428;SDS011;2737;52.386;9.980;2023-05-07T15:26:09;6.07;;;4.70;;